Time;durP1;ratioP1;P1;durP2;ratioP2;P2;SDS_P1;SDS_P2;PMS_P1;PMS_P2;Temp;Humidity;BMP_temperature;BMP_pressure;BME280_temperature;BME280_humidity;BME280_pressure;Samples;Min_cycle;Max_cycle;Signal;HPM_P1;HPM_P2
2022/08/21 04:01:25;;;;;;;13.15;8.02;;;14.60;99.90;;;;;;5473021;23;20055;-85
2022/08/21 04:03:51;;;;;;;13.48;8.77;;;14.60;99.90;;;;;;4902417;29;20032;-86
2022/08/21 04:06:17;;;;;;;17.35;8.75;;;14.60;99.90;;;;;;4902925;29;20052;-85
2022/08/21 04:08:43;;;;;;;16.65;8.98;;;14.60;99.90;;;;;;4902807;29;20044;-86
2022/08/21 04:11:10;;;;;;;14.45;8.20;;;14.60;99.90;;;;;;4887249;29;20115;-85
2022/08/21 04:13:36;;;;;;;14.48;7.90;;;14.50;99.90;;;;;;4902581;29;20067;-85
2022/08/21 04:16:03;;;;;;;13.23;7.97;;;14.50;99.90;;;;;;4919519;29;20543;-85
2022/08/21 04:18:29;;;;;;;14.02;8.50;;;14.60;99.90;;;;;;4902134;29;20118;-84
2022/08/21 04:20:57;;;;;;;13.88;7.75;;;14.50;99.90;;;;;;4886487;29;20086;-85
2022/08/21 04:23:23;;;;;;;16.92;9.18;;;14.50;99.90;;;;;;4902693;29;20122;-86
2022/08/21 04:25:49;;;;;;;12.95;8.00;;;14.40;99.90;;;;;;4919413;29;20115;-86
2022/08/21 04:28:15;;;;;;;13.25;8.05;;;14.50;99.90;;;;;;4920067;29;20138;-86
2022/08/21 04:30:41;;;;;;;10.48;8.07;;;14.50;99.90;;;;;;4886980;29;20488;-86
2022/08/21 04:33:07;;;;;;;11.75;7.82;;;14.40;99.90;;;;;;4919532;29;20040;-85
2022/08/21 04:35:32;;;;;;;15.95;8.27;;;14.40;99.90;;;;;;4902236;29;20037;-85
2022/08/21 04:37:58;;;;;;;12.50;7.75;;;14.40;99.90;;;;;;4902766;29;20108;-85
2022/08/21 04:40:26;;;;;;;14.35;8.63;;;14.40;99.90;;;;;;4917750;29;20044;-86
2022/08/21 04:43:01;;;;;;;12.68;7.47;;;14.50;99.90;;;;;;4902053;29;20051;-85
2022/08/21 04:45:30;;;;;;;12.80;7.43;;;14.50;99.90;;;;;;4902143;29;20465;-86
2022/08/21 04:47:59;;;;;;;12.93;7.22;;;14.50;99.90;;;;;;4886523;29;20484;-84
2022/08/21 04:50:31;;;;;;;15.65;8.18;;;14.40;99.90;;;;;;4902251;29;20059;-86
2022/08/21 04:52:57;;;;;;;11.80;8.07;;;14.40;99.90;;;;;;4902391;29;20040;-86
2022/08/21 04:55:25;;;;;;;9.38;7.10;;;14.40;99.90;;;;;;4919057;29;20088;-86
2022/08/21 04:57:53;;;;;;;14.98;7.57;;;14.50;99.90;;;;;;4902091;29;20440;-85
2022/08/21 05:00:20;;;;;;;11.95;7.15;;;14.50;99.90;;;;;;4901489;29;20075;-85
2022/08/21 05:02:52;;;;;;;15.60;7.43;;;14.50;99.90;;;;;;4901566;29;20044;-85
2022/08/21 05:05:17;;;;;;;12.88;6.88;;;14.60;99.90;;;;;;4901342;29;20048;-85
2022/08/21 05:07:44;;;;;;;14.32;7.90;;;14.50;99.90;;;;;;4918373;29;20104;-86
2022/08/21 05:10:11;;;;;;;15.77;7.10;;;14.50;99.90;;;;;;4901382;29;20507;-84
2022/08/21 05:12:37;;;;;;;12.70;7.22;;;14.50;99.90;;;;;;4918812;29;20040;-84
2022/08/21 05:15:03;;;;;;;13.80;7.43;;;14.60;99.90;;;;;;4918098;29;20040;-83
2022/08/21 05:17:29;;;;;;;10.82;6.97;;;14.60;99.90;;;;;;4901338;29;20048;-83
2022/08/21 05:19:55;;;;;;;13.10;7.32;;;14.50;99.90;;;;;;4918231;29;20047;-85
2022/08/21 05:22:24;;;;;;;10.98;7.53;;;14.60;99.90;;;;;;4901406;29;20120;-86
2022/08/21 05:24:50;;;;;;;13.40;7.40;;;14.60;99.90;;;;;;4902056;29;20083;-85
2022/08/21 05:27:16;;;;;;;12.75;7.15;;;14.60;99.90;;;;;;4885711;29;20048;-86
2022/08/21 05:29:42;;;;;;;13.80;7.03;;;14.60;99.90;;;;;;4918305;29;20040;-85
2022/08/21 05:32:12;;;;;;;14.20;7.53;;;14.60;99.90;;;;;;4901144;29;20436;-85
2022/08/21 05:34:38;;;;;;;13.02;6.82;;;14.60;99.90;;;;;;4901617;29;20044;-86
2022/08/21 05:37:04;;;;;;;14.55;7.00;;;14.60;99.90;;;;;;4918091;29;20088;-85
2022/08/21 05:39:30;;;;;;;13.32;7.25;;;14.70;99.90;;;;;;4901105;29;20523;-86
2022/08/21 05:41:58;;;;;;;9.93;6.47;;;14.70;99.90;;;;;;4900699;29;20083;-86
2022/08/21 05:44:24;;;;;;;15.63;7.07;;;14.70;99.90;;;;;;4885834;29;20104;-86
2022/08/21 05:46:50;;;;;;;14.05;7.05;;;14.70;99.90;;;;;;4900933;29;20048;-86
2022/08/21 05:49:15;;;;;;;14.13;6.57;;;14.70;99.90;;;;;;4900711;29;20111;-85
2022/08/21 05:51:42;;;;;;;11.05;6.53;;;14.80;99.90;;;;;;4903256;29;20153;-87
2022/08/21 05:54:07;;;;;;;15.55;6.43;;;14.80;99.90;;;;;;4904758;29;20044;-86
2022/08/21 05:56:33;;;;;;;14.23;6.90;;;14.80;99.90;;;;;;4904999;29;20378;-85
2022/08/21 05:58:59;;;;;;;14.32;6.63;;;14.90;99.90;;;;;;4889161;29;20084;-86
2022/08/21 06:01:25;;;;;;;11.80;6.30;;;14.90;99.90;;;;;;4920933;29;20047;-85
2022/08/21 06:03:51;;;;;;;12.60;6.82;;;14.90;99.90;;;;;;4889075;29;20040;-86
2022/08/21 06:06:16;;;;;;;12.30;6.70;;;15.00;99.90;;;;;;4921523;29;20044;-87
2022/08/21 06:08:42;;;;;;;14.95;7.03;;;15.00;99.90;;;;;;4904813;29;20120;-87
2022/08/21 06:11:08;;;;;;;12.38;5.97;;;15.00;99.90;;;;;;4889250;29;20048;-86
2022/08/21 06:13:35;;;;;;;14.77;5.78;;;15.10;99.90;;;;;;4905302;29;20040;-86
2022/08/21 06:16:02;;;;;;;11.07;5.95;;;15.10;99.90;;;;;;4905122;29;20083;-86
2022/08/21 06:18:28;;;;;;;17.90;7.65;;;15.20;99.90;;;;;;4921457;29;20047;-86
2022/08/21 06:20:53;;;;;;;15.13;6.80;;;15.20;99.90;;;;;;4905193;29;20047;-86
2022/08/21 06:23:19;;;;;;;13.73;6.63;;;15.30;99.90;;;;;;4904187;29;20423;-85
2022/08/21 06:25:45;;;;;;;11.93;6.40;;;15.30;99.90;;;;;;4905301;29;20395;-86
2022/08/21 06:28:10;;;;;;;15.65;7.03;;;15.40;99.90;;;;;;4921659;29;20040;-87
2022/08/21 06:30:38;;;;;;;14.70;6.80;;;15.50;99.90;;;;;;4904757;29;20111;-85
2022/08/21 06:33:05;;;;;;;13.93;6.30;;;15.50;99.90;;;;;;4888954;29;20058;-87
2022/08/21 06:35:31;;;;;;;15.30;5.95;;;15.60;99.90;;;;;;4904465;29;20047;-87
2022/08/21 06:37:57;;;;;;;12.45;6.05;;;15.70;99.90;;;;;;4921444;29;20385;-85
2022/08/21 06:40:23;;;;;;;11.85;5.95;;;15.80;99.90;;;;;;4921061;29;20048;-84
2022/08/21 06:42:49;;;;;;;13.38;5.80;;;15.80;99.90;;;;;;4921224;29;20043;-86
2022/08/21 06:45:15;;;;;;;12.82;5.65;;;16.00;99.90;;;;;;4921428;29;20048;-85
2022/08/21 06:47:41;;;;;;;12.38;5.30;;;16.00;99.90;;;;;;4887940;29;20048;-85
2022/08/21 06:50:07;;;;;;;16.27;6.03;;;16.10;99.90;;;;;;4888359;29;20135;-86
2022/08/21 06:52:37;;;;;;;14.02;5.50;;;16.20;99.90;;;;;;4921214;29;20079;-85
2022/08/21 06:55:05;;;;;;;13.95;5.60;;;16.30;99.90;;;;;;4903816;29;20040;-86
2022/08/21 06:57:31;;;;;;;13.20;5.03;;;16.40;99.90;;;;;;4904480;29;20043;-87
2022/08/21 06:59:56;;;;;;;11.50;4.25;;;16.50;99.90;;;;;;4923384;29;20037;-87
2022/08/21 07:02:22;;;;;;;11.60;3.92;;;16.50;99.90;;;;;;4905772;29;20103;-86
2022/08/21 07:04:48;;;;;;;9.57;3.55;;;16.60;99.90;;;;;;4928672;29;20089;-84
2022/08/21 07:07:13;;;;;;;12.30;3.90;;;16.80;99.90;;;;;;4940873;29;20040;-85
2022/08/21 07:09:39;;;;;;;12.23;4.10;;;16.90;99.90;;;;;;4941238;29;20060;-84
2022/08/21 07:12:05;;;;;;;11.02;3.60;;;17.00;99.90;;;;;;4908582;29;20123;-86
2022/08/21 07:14:31;;;;;;;10.35;3.20;;;17.10;99.90;;;;;;4891681;29;20048;-85
2022/08/21 07:16:57;;;;;;;8.35;3.40;;;17.20;99.90;;;;;;4907635;29;20119;-87
2022/08/21 07:19:23;;;;;;;11.82;3.88;;;17.30;99.90;;;;;;4904562;29;20100;-86
2022/08/21 07:21:48;;;;;;;10.20;3.72;;;17.40;99.90;;;;;;4903145;29;20052;-86
2022/08/21 07:24:14;;;;;;;10.20;3.28;;;17.40;99.90;;;;;;4903526;29;20382;-85
2022/08/21 07:26:40;;;;;;;10.40;4.60;;;17.50;99.90;;;;;;4903092;29;20059;-83
2022/08/21 07:29:06;;;;;;;8.13;3.40;;;17.60;99.90;;;;;;4902649;29;20484;-85
2022/08/21 07:31:32;;;;;;;10.60;3.70;;;17.70;99.90;;;;;;4902088;29;20051;-83
2022/08/21 07:33:58;;;;;;;14.85;3.60;;;17.70;99.90;;;;;;4902171;29;20051;-86
2022/08/21 07:36:24;;;;;;;12.20;3.60;;;17.80;99.90;;;;;;4902364;29;20051;-85
2022/08/21 07:38:50;;;;;;;10.10;3.20;;;17.80;99.90;;;;;;4902374;29;20044;-85
2022/08/21 07:41:19;;;;;;;9.27;3.30;;;17.90;99.90;;;;;;4902146;29;20175;-85
2022/08/21 07:43:45;;;;;;;11.32;3.78;;;18.00;99.90;;;;;;4902710;29;20107;-84
2022/08/21 07:46:11;;;;;;;9.40;3.28;;;18.00;99.90;;;;;;4902757;29;20052;-86
2022/08/21 07:48:37;;;;;;;12.10;4.30;;;18.10;99.90;;;;;;4886612;29;20399;-84
2022/08/21 07:51:07;;;;;;;7.38;3.08;;;18.20;99.90;;;;;;4887547;29;20500;-85
2022/08/21 07:53:33;;;;;;;8.90;3.13;;;18.30;99.90;;;;;;4902871;29;20048;-84
2022/08/21 07:55:58;;;;;;;6.85;3.35;;;18.40;99.90;;;;;;4902385;29;20539;-83
2022/08/21 07:58:24;;;;;;;12.23;3.13;;;18.40;99.90;;;;;;4901889;29;20048;-85
2022/08/21 08:00:50;;;;;;;8.52;2.78;;;18.50;99.90;;;;;;4918942;29;20040;-83
2022/08/21 08:03:15;;;;;;;8.75;2.60;;;18.50;99.90;;;;;;4902089;29;20121;-85
2022/08/21 08:05:41;;;;;;;11.45;2.83;;;18.60;99.90;;;;;;4901895;29;20040;-85
2022/08/21 08:08:07;;;;;;;12.45;2.38;;;18.70;99.90;;;;;;4902443;29;20138;-86
2022/08/21 08:10:33;;;;;;;13.32;3.10;;;18.80;99.90;;;;;;4918745;29;20044;-84
2022/08/21 08:12:58;;;;;;;9.57;3.00;;;18.90;99.90;;;;;;4902721;29;20044;-87
2022/08/21 08:15:26;;;;;;;9.43;2.42;;;18.90;99.90;;;;;;4919523;29;20075;-84
2022/08/21 08:17:54;;;;;;;12.05;3.65;;;19.00;99.90;;;;;;4901941;29;20045;-85
2022/08/21 08:20:22;;;;;;;9.80;2.90;;;19.00;99.90;;;;;;4918974;29;20048;-84
2022/08/21 08:22:48;;;;;;;8.65;3.00;;;19.10;99.90;;;;;;4902183;29;20127;-84
2022/08/21 08:25:15;;;;;;;8.85;2.90;;;19.10;99.90;;;;;;4901894;29;20074;-85
2022/08/21 08:27:41;;;;;;;10.98;2.85;;;19.20;99.90;;;;;;4901631;29;20048;-84
2022/08/21 08:30:09;;;;;;;12.45;3.10;;;19.20;99.90;;;;;;4902043;29;20052;-87
2022/08/21 08:32:35;;;;;;;13.63;4.03;;;19.30;99.90;;;;;;4902408;29;20048;-86
2022/08/21 08:35:00;;;;;;;14.45;3.70;;;19.30;99.90;;;;;;4901438;29;20044;-87
2022/08/21 08:37:26;;;;;;;13.82;3.90;;;19.40;99.90;;;;;;4901971;29;20048;-84
2022/08/21 08:39:52;;;;;;;14.32;3.83;;;19.50;99.90;;;;;;4901491;29;20040;-88
2022/08/21 08:42:28;;;;;;;13.02;3.50;;;19.50;99.90;;;;;;4918658;29;20044;-85
2022/08/21 08:45:09;;;;;;;12.45;3.50;;;19.60;99.90;;;;;;4918342;29;20042;-84
2022/08/21 08:47:38;;;;;;;12.70;3.60;;;19.60;99.90;;;;;;4918236;29;20047;-85
2022/08/21 08:50:17;;;;;;;12.65;4.05;;;19.70;99.90;;;;;;4918388;29;20079;-84
2022/08/21 08:52:51;;;;;;;12.43;3.58;;;19.70;99.90;;;;;;4901404;29;20107;-85
2022/08/21 08:55:28;;;;;;;14.93;3.95;;;19.90;99.90;;;;;;4901541;29;20464;-85
2022/08/21 08:57:55;;;;;;;12.95;3.83;;;20.00;99.90;;;;;;4901336;29;20500;-86
2022/08/21 09:00:23;;;;;;;10.88;3.65;;;20.20;99.90;;;;;;4901485;29;20100;-86
2022/08/21 09:02:53;;;;;;;12.45;4.22;;;20.30;99.90;;;;;;4918079;29;20040;-87
2022/08/21 09:05:25;;;;;;;13.95;3.75;;;20.40;99.90;;;;;;4901118;29;20357;-87
2022/08/21 09:08:01;;;;;;;10.77;3.30;;;20.40;99.90;;;;;;4885555;29;20415;-87
2022/08/21 09:10:43;;;;;;;15.77;3.28;;;20.40;99.90;;;;;;4901596;29;20043;-86
2022/08/21 09:13:23;;;;;;;12.70;3.58;;;20.40;99.90;;;;;;4918025;29;20040;-85
2022/08/21 09:16:21;;;;;;;15.30;3.58;;;20.20;99.90;;;;;;4900972;29;20086;-85
2022/08/21 09:19:03;;;;;;;19.15;4.00;;;20.20;99.90;;;;;;4901253;29;20485;-86
2022/08/21 09:21:47;;;;;;;13.30;3.20;;;20.40;99.90;;;;;;4901172;29;20127;-86
2022/08/21 09:24:21;;;;;;;10.63;3.30;;;20.50;99.90;;;;;;4886023;29;20083;-85
2022/08/21 09:27:07;;;;;;;11.35;3.10;;;20.70;99.90;;;;;;4917840;29;20443;-87
2022/08/21 09:29:37;;;;;;;15.00;3.58;;;20.70;99.90;;;;;;4885316;29;20481;-86
2022/08/21 09:32:19;;;;;;;12.73;3.22;;;20.70;99.90;;;;;;4900707;29;20040;-85
2022/08/21 09:35:11;;;;;;;11.43;3.40;;;20.60;99.90;;;;;;4901355;29;20055;-84
2022/08/21 09:37:48;;;;;;;13.13;2.83;;;20.60;99.90;;;;;;4917983;29;20032;-84
2022/08/21 09:40:45;;;;;;;15.57;3.15;;;20.60;99.90;;;;;;4901061;29;20075;-83
2022/08/21 09:43:13;;;;;;;10.93;2.72;;;20.50;99.90;;;;;;4894985;29;20403;-86
2022/08/21 09:45:44;;;;;;;12.25;3.75;;;20.50;99.90;;;;;;4900714;29;20044;-86
2022/08/21 09:48:24;;;;;;;14.82;3.50;;;20.60;99.90;;;;;;4885043;29;20044;-85
2022/08/21 09:50:51;;;;;;;10.82;2.97;;;20.60;99.90;;;;;;4885014;29;20071;-86
2022/08/21 09:53:26;;;;;;;9.57;2.90;;;20.60;99.90;;;;;;4901097;29;20067;-85
2022/08/21 09:58:48;;;;;;;9.30;2.55;;;20.50;99.90;;;;;;4900615;29;20095;-84
2022/08/21 10:01:21;;;;;;;10.45;2.80;;;20.60;99.90;;;;;;4900512;29;20093;-87
2022/08/21 10:03:47;;;;;;;10.95;3.00;;;21.00;99.90;;;;;;4901211;29;20048;-86
2022/08/21 10:06:27;;;;;;;9.68;2.67;;;21.40;99.90;;;;;;4900782;29;20101;-86
2022/08/21 10:09:04;;;;;;;12.95;3.35;;;21.60;99.90;;;;;;4885146;29;20052;-85
2022/08/21 10:11:31;;;;;;;10.15;2.80;;;22.00;99.90;;;;;;4900630;29;20450;-87
2022/08/21 10:14:06;;;;;;;10.85;2.50;;;22.10;99.90;;;;;;4900968;29;20130;-88
2022/08/21 10:16:35;;;;;;;8.23;2.10;;;22.20;99.90;;;;;;4901200;29;20040;-86
2022/08/21 10:19:19;;;;;;;11.10;2.30;;;22.20;99.90;;;;;;4885042;29;20040;-84
2022/08/21 10:22:22;;;;;;;10.82;3.10;;;22.10;99.90;;;;;;4900550;29;20081;-87
2022/08/21 10:25:00;;;;;;;8.52;2.20;;;22.10;99.90;;;;;;4885021;29;20044;-87
2022/08/21 10:27:59;;;;;;;10.30;2.70;;;22.20;99.90;;;;;;4917469;29;20048;-86
2022/08/21 10:30:34;;;;;;;8.15;2.20;;;22.20;99.90;;;;;;4900980;29;20365;-86
2022/08/21 10:33:11;;;;;;;11.45;2.38;;;22.10;99.90;;;;;;4885128;29;20342;-84
2022/08/21 10:35:44;;;;;;;14.50;3.03;;;22.30;99.90;;;;;;4899862;29;20597;-85
2022/08/21 10:38:21;;;;;;;10.95;2.97;;;22.20;99.90;;;;;;4920540;29;20040;-84
2022/08/21 10:41:12;;;;;;;11.43;2.47;;;22.00;99.90;;;;;;4920744;29;20044;-86
2022/08/21 10:44:12;;;;;;;8.50;2.03;;;21.90;99.90;;;;;;4903986;29;20063;-84
2022/08/21 10:46:37;;;;;;;8.05;1.85;;;21.90;99.90;;;;;;4903666;29;20048;-86
2022/08/21 10:49:29;;;;;;;8.20;2.05;;;22.10;99.90;;;;;;4903367;29;20047;-85
2022/08/21 10:52:13;;;;;;;12.70;3.08;;;22.30;99.90;;;;;;4903604;29;20106;-86
2022/08/21 10:54:44;;;;;;;8.35;2.10;;;22.60;99.90;;;;;;4903792;29;20481;-85
2022/08/21 10:57:32;;;;;;;9.80;2.30;;;22.80;99.90;;;;;;4904614;29;20140;-84
2022/08/21 11:00:12;;;;;;;10.13;2.08;;;22.90;99.90;;;;;;4903727;29;20046;-86
2022/08/21 11:02:48;;;;;;;6.95;2.20;;;22.70;99.90;;;;;;4903366;29;20044;-84
2022/08/21 11:05:29;;;;;;;9.35;2.30;;;22.50;99.90;;;;;;4904589;29;20429;-86
2022/08/21 11:08:00;;;;;;;7.40;2.30;;;22.60;99.90;;;;;;4902994;29;20044;-85
2022/08/21 11:10:32;;;;;;;10.70;2.20;;;22.70;99.90;;;;;;4902829;29;20127;-84
2022/08/21 11:13:06;;;;;;;10.60;2.10;;;22.70;99.90;;;;;;4903845;29;20067;-85
2022/08/21 11:15:56;;;;;;;8.73;2.40;;;22.90;99.90;;;;;;4903346;29;20050;-87
2022/08/21 11:18:28;;;;;;;10.02;2.15;;;23.10;99.90;;;;;;4903220;29;20039;-86
2022/08/21 11:21:04;;;;;;;8.20;2.35;;;23.10;99.90;;;;;;4903922;29;20056;-84
2022/08/21 11:24:03;;;;;;;8.23;2.20;;;22.80;99.90;;;;;;4903283;29;20071;-87
2022/08/21 11:26:41;;;;;;;8.15;1.92;;;22.60;99.90;;;;;;4903081;29;20062;-86
2022/08/21 11:29:29;;;;;;;11.45;2.53;;;22.60;99.90;;;;;;4887356;29;20499;-85
2022/08/21 11:32:23;;;;;;;13.20;2.72;;;22.50;99.90;;;;;;4902981;29;20164;-85
2022/08/21 11:34:58;;;;;;;9.75;2.45;;;22.50;99.90;;;;;;4861554;29;20062;-85
2022/08/21 11:37:40;;;;;;;;;;;22.80;99.90;;;;;;4903811;29;20051;-88
2022/08/21 11:40:31;;;;;;;9.02;2.65;;;23.00;99.90;;;;;;4888146;29;19919;-86
2022/08/21 11:43:17;;;;;;;6.82;2.53;;;23.30;99.90;;;;;;4902955;29;20070;-85
2022/08/21 11:45:50;;;;;;;16.23;3.53;;;23.40;99.90;;;;;;4902765;29;20076;-83
2022/08/21 11:48:40;;;;;;;8.70;2.17;;;23.60;99.90;;;;;;4902096;29;20040;-85
2022/08/21 11:51:15;;;;;;;7.78;2.45;;;23.50;99.90;;;;;;4903072;29;20047;-86
2022/08/21 11:53:55;;;;;;;7.90;1.83;;;23.80;99.90;;;;;;4903964;29;20066;-85
2022/08/21 11:56:26;;;;;;;9.00;2.58;;;23.90;99.90;;;;;;4919492;29;20567;-87
2022/08/21 11:59:01;;;;;;;8.85;2.65;;;24.00;99.90;;;;;;4902267;29;20044;-86
2022/08/21 12:01:36;;;;;;;7.80;2.10;;;23.80;99.90;;;;;;4901918;29;20048;-85
2022/08/21 12:04:06;;;;;;;10.93;2.22;;;23.70;99.90;;;;;;4902523;29;20048;-85
2022/08/21 12:06:37;;;;;;;8.00;2.38;;;23.50;99.90;;;;;;4919639;29;20080;-84
2022/08/21 12:09:07;;;;;;;10.13;2.88;;;23.30;99.90;;;;;;4903147;29;20133;-86
2022/08/21 12:11:49;;;;;;;11.52;2.65;;;23.30;99.90;;;;;;4903030;29;20040;-85
2022/08/21 12:14:18;;;;;;;9.38;2.13;;;23.20;99.90;;;;;;4919567;29;20052;-86
2022/08/21 12:16:46;;;;;;;8.70;2.10;;;23.20;99.90;;;;;;4902365;29;20044;-86
2022/08/21 12:19:27;;;;;;;9.15;2.15;;;23.20;99.90;;;;;;4902366;29;20563;-82
2022/08/21 12:22:12;;;;;;;6.75;2.00;;;23.30;99.90;;;;;;4902061;29;20055;-84
2022/08/21 12:24:48;;;;;;;8.60;2.10;;;23.40;99.90;;;;;;4902850;29;20044;-84
2022/08/21 12:27:19;;;;;;;11.23;2.33;;;23.40;99.90;;;;;;4886176;29;20471;-86
2022/08/21 12:29:55;;;;;;;7.97;2.10;;;23.50;99.90;;;;;;4902290;29;20063;-87
2022/08/21 12:32:28;;;;;;;9.75;2.40;;;23.60;99.90;;;;;;4901846;29;20073;-85
2022/08/21 12:35:05;;;;;;;6.88;2.00;;;23.70;99.90;;;;;;4918860;29;20040;-84
2022/08/21 12:37:42;;;;;;;14.30;2.70;;;23.50;99.90;;;;;;4901559;29;20191;-85
2022/08/21 12:40:37;;;;;;;8.90;2.42;;;23.40;99.90;;;;;;4902496;29;20083;-84
2022/08/21 12:43:04;;;;;;;5.32;1.90;;;23.20;99.90;;;;;;4902004;29;20069;-85
2022/08/21 12:45:36;;;;;;;7.72;2.20;;;23.10;99.90;;;;;;4886148;29;20127;-81
2022/08/21 12:48:25;;;;;;;9.40;2.03;;;23.10;99.90;;;;;;4901770;29;20044;-82
2022/08/21 12:50:52;;;;;;;9.10;2.20;;;23.40;99.90;;;;;;4878668;29;20139;-84
2022/08/21 12:53:42;;;;;;;7.78;2.17;;;23.70;99.90;;;;;;4918649;29;20135;-83
2022/08/21 12:56:14;;;;;;;8.98;1.83;;;23.90;99.90;;;;;;4901542;29;20099;-85
2022/08/21 12:58:44;;;;;;;7.03;2.00;;;24.20;99.90;;;;;;4886125;29;20117;-84
2022/08/21 13:01:24;;;;;;;7.00;2.00;;;24.40;99.90;;;;;;4917879;29;20123;-85
2022/08/21 13:03:52;;;;;;;8.93;2.22;;;24.50;99.90;;;;;;4918904;29;20052;-85
2022/08/21 13:06:22;;;;;;;10.80;2.10;;;24.70;99.90;;;;;;4918641;29;20036;-85
2022/08/21 13:08:52;;;;;;;7.88;2.45;;;24.70;99.90;;;;;;4901580;29;20048;-86
2022/08/21 13:11:21;;;;;;;5.45;1.80;;;24.70;99.90;;;;;;4901477;29;20401;-83
2022/08/21 13:13:52;;;;;;;6.85;2.13;;;24.90;99.90;;;;;;4918558;29;20047;-81
2022/08/21 13:16:24;;;;;;;7.10;2.38;;;24.80;99.90;;;;;;4901004;29;20047;-84
2022/08/21 13:18:56;;;;;;;8.90;2.10;;;24.80;99.90;;;;;;4886149;29;20040;-85
2022/08/21 13:21:32;;;;;;;10.75;2.22;;;24.90;99.90;;;;;;4901280;29;20083;-84
2022/08/21 13:24:20;;;;;;;9.18;2.03;;;24.90;99.90;;;;;;4902809;29;20372;-86
2022/08/21 13:26:46;;;;;;;9.82;2.70;;;24.90;99.90;;;;;;4902109;29;20052;-84
2022/08/21 13:29:15;;;;;;;8.05;2.15;;;24.90;99.90;;;;;;4900972;29;20044;-82
2022/08/21 13:31:47;;;;;;;9.25;2.17;;;24.90;99.90;;;;;;4885625;29;20396;-86
2022/08/21 13:34:15;;;;;;;10.13;2.75;;;24.90;99.90;;;;;;4901533;29;20052;-87
2022/08/21 13:36:42;;;;;;;6.97;1.80;;;24.70;99.90;;;;;;4886248;29;20491;-87
2022/08/21 13:39:14;;;;;;;8.25;2.30;;;24.60;99.90;;;;;;4886305;29;20036;-85
2022/08/21 13:41:43;;;;;;;10.63;1.83;;;24.70;99.90;;;;;;4901665;29;20059;-83
2022/08/21 13:44:31;;;;;;;11.68;2.50;;;24.70;99.90;;;;;;4918292;29;20040;-86
2022/08/21 13:47:00;;;;;;;9.65;2.00;;;24.70;99.90;;;;;;4901815;29;20048;-87
2022/08/21 13:49:38;;;;;;;6.63;2.22;;;24.90;99.90;;;;;;4886507;29;20040;-87
2022/08/21 13:52:19;;;;;;;8.13;1.98;;;25.10;99.90;;;;;;4901556;29;20040;-87
2022/08/21 13:54:55;;;;;;;9.70;2.10;;;24.90;99.90;;;;;;4918767;29;20088;-88
2022/08/21 13:57:28;;;;;;;8.50;1.95;;;24.80;99.90;;;;;;4902126;29;20477;-88
2022/08/21 14:00:39;;;;;;;8.77;2.28;;;24.90;99.90;;;;;;4902489;29;20036;-86
2022/08/21 14:03:10;;;;;;;9.18;1.95;;;24.90;99.90;;;;;;4873633;29;20056;-86
2022/08/21 14:05:43;;;;;;;5.95;1.80;;;24.80;99.90;;;;;;4886193;29;20044;-85
2022/08/21 14:08:15;;;;;;;6.65;1.88;;;24.90;99.90;;;;;;4902144;29;20110;-86
2022/08/21 14:10:45;;;;;;;9.23;1.85;;;24.70;99.90;;;;;;4887337;29;20040;-87
2022/08/21 14:13:42;;;;;;;5.88;1.80;;;24.60;99.90;;;;;;4922244;29;20052;-86
2022/08/21 14:16:21;;;;;;;6.70;2.13;;;24.50;99.90;;;;;;4922946;29;20051;-87
2022/08/21 14:18:54;;;;;;;8.40;1.95;;;24.00;99.90;;;;;;4890599;29;20044;-89
2022/08/21 14:21:49;;;;;;;9.15;2.17;;;24.00;99.90;;;;;;4906135;29;20052;-87
2022/08/21 14:24:21;;;;;;;;;;;24.00;99.90;;;;;;4893754;29;20060;-84
2022/08/21 14:26:51;;;;;;;6.88;1.92;;;23.80;99.90;;;;;;4921964;29;19926;-86
2022/08/21 14:29:19;;;;;;;7.93;1.85;;;23.60;99.90;;;;;;4905146;29;20059;-88
2022/08/21 14:31:51;;;;;;;6.32;1.58;;;23.70;99.90;;;;;;4889738;29;20048;-87
2022/08/21 14:34:17;;;;;;;8.68;1.92;;;23.90;99.90;;;;;;4905595;29;20052;-86
2022/08/21 14:36:43;;;;;;;8.60;1.60;;;24.10;99.90;;;;;;4904913;29;20044;-85
2022/08/21 14:39:09;;;;;;;9.73;1.70;;;23.90;99.90;;;;;;4904024;29;20048;-87
2022/08/21 14:41:36;;;;;;;7.70;2.60;;;24.00;99.90;;;;;;4904401;29;20048;-87
2022/08/21 14:44:03;;;;;;;8.02;1.80;;;24.00;99.90;;;;;;4922105;29;20390;-86
2022/08/21 14:46:31;;;;;;;6.38;1.50;;;24.30;99.90;;;;;;4904732;29;20108;-84
2022/08/21 14:48:58;;;;;;;7.05;2.25;;;24.40;99.90;;;;;;4888210;29;20044;-87
2022/08/21 14:51:24;;;;;;;7.32;1.80;;;24.50;99.90;;;;;;4904732;29;20127;-87
2022/08/21 14:53:49;;;;;;;6.65;2.08;;;24.50;99.90;;;;;;4921570;29;20149;-85
2022/08/21 14:56:16;;;;;;;6.75;1.90;;;24.70;99.90;;;;;;4903326;29;20044;-86
2022/08/21 14:58:45;;;;;;;6.50;1.45;;;24.30;99.90;;;;;;4904025;29;20052;-88
2022/08/21 15:01:13;;;;;;;5.85;1.42;;;23.90;99.90;;;;;;4904882;29;20107;-87
2022/08/21 15:03:39;;;;;;;4.63;1.50;;;23.90;99.90;;;;;;4922411;29;20116;-85
2022/08/21 15:06:07;;;;;;;5.93;1.45;;;24.00;99.90;;;;;;4921708;29;20412;-87
2022/08/21 15:08:33;;;;;;;5.25;1.50;;;24.00;99.90;;;;;;4921558;29;20382;-86
2022/08/21 15:11:01;;;;;;;5.93;2.13;;;24.00;99.90;;;;;;4921297;29;20036;-85
2022/08/21 15:13:27;;;;;;;6.15;1.63;;;24.00;99.90;;;;;;4888939;29;20123;-85
2022/08/21 15:15:53;;;;;;;7.55;1.40;;;23.80;99.90;;;;;;4890296;29;20075;-84
2022/08/21 15:18:20;;;;;;;6.97;1.98;;;23.70;99.90;;;;;;4910080;29;20103;-85
2022/08/21 15:20:46;;;;;;;7.53;1.70;;;23.60;99.90;;;;;;4899903;29;20136;-82
2022/08/21 15:23:12;;;;;;;7.78;1.98;;;23.60;99.90;;;;;;4909139;29;20079;-84
2022/08/21 15:25:41;;;;;;;5.15;1.40;;;23.60;99.90;;;;;;4906119;29;20052;-84
2022/08/21 15:28:08;;;;;;;7.65;1.60;;;23.70;99.90;;;;;;4905056;29;20135;-84
2022/08/21 15:30:35;;;;;;;9.15;1.50;;;23.70;99.90;;;;;;4904834;29;20068;-85
2022/08/21 15:33:00;;;;;;;5.80;1.88;;;23.60;99.90;;;;;;4904274;29;20056;-84
2022/08/21 15:35:26;;;;;;;6.13;1.50;;;23.50;99.90;;;;;;4888775;29;20122;-84
2022/08/21 15:37:52;;;;;;;7.28;1.58;;;23.40;99.90;;;;;;4887843;29;20048;-82
2022/08/21 15:40:18;;;;;;;7.68;1.85;;;23.10;99.90;;;;;;4887664;29;20045;-86
2022/08/21 15:42:44;;;;;;;5.93;1.55;;;23.00;99.90;;;;;;4921117;29;20040;-85
2022/08/21 15:45:12;;;;;;;5.28;1.55;;;23.10;99.90;;;;;;4903954;29;20468;-88
2022/08/21 15:47:42;;;;;;;6.68;1.40;;;23.30;99.90;;;;;;4903822;29;20068;-84
2022/08/21 15:50:09;;;;;;;4.47;1.30;;;23.40;99.90;;;;;;4904318;29;20052;-86
2022/08/21 15:52:35;;;;;;;6.43;1.50;;;23.50;99.90;;;;;;4887336;29;20056;-86
2022/08/21 15:55:01;;;;;;;5.25;1.30;;;23.50;99.90;;;;;;4903286;29;20033;-85
2022/08/21 15:57:27;;;;;;;7.20;1.85;;;23.50;99.90;;;;;;4920115;29;20476;-86
2022/08/21 15:59:58;;;;;;;4.47;1.20;;;23.50;99.90;;;;;;4903418;29;20507;-87
2022/08/21 16:02:27;;;;;;;9.48;1.65;;;23.60;99.90;;;;;;4902967;29;20048;-86
2022/08/21 16:04:53;;;;;;;8.73;1.83;;;23.60;99.90;;;;;;4903857;29;20044;-87
2022/08/21 16:07:19;;;;;;;8.48;2.05;;;23.70;99.90;;;;;;4920453;29;20119;-84
2022/08/21 16:09:45;;;;;;;8.02;1.95;;;23.80;99.90;;;;;;4902949;29;20056;-86
2022/08/21 16:12:18;;;;;;;8.02;1.80;;;23.80;99.90;;;;;;4887258;29;20373;-85
2022/08/21 16:14:44;;;;;;;7.97;1.58;;;23.70;99.90;;;;;;4903612;29;20052;-85
2022/08/21 16:17:10;;;;;;;3.63;1.20;;;23.60;99.90;;;;;;4903029;29;20099;-85
2022/08/21 16:19:37;;;;;;;8.82;1.67;;;23.60;99.90;;;;;;4887287;29;20031;-84
2022/08/21 16:22:03;;;;;;;8.52;1.52;;;23.70;99.90;;;;;;4902837;29;20054;-86
2022/08/21 16:24:29;;;;;;;8.52;2.03;;;23.60;99.90;;;;;;4918972;29;20040;-87
2022/08/21 16:26:55;;;;;;;7.47;2.15;;;23.40;99.90;;;;;;4902130;29;20059;-86
2022/08/21 16:29:22;;;;;;;7.75;1.75;;;23.40;99.90;;;;;;4902445;29;20042;-82
2022/08/21 16:31:48;;;;;;;19.02;8.27;;;23.40;99.90;;;;;;4886319;29;20439;-81
2022/08/21 16:34:17;;;;;;;6.15;2.00;;;23.30;99.90;;;;;;4919504;29;20048;-85
2022/08/21 16:36:44;;;;;;;6.22;1.60;;;23.20;99.90;;;;;;4920233;29;20048;-87
2022/08/21 16:39:10;;;;;;;7.00;1.50;;;23.10;99.90;;;;;;4920315;29;20055;-87
2022/08/21 16:41:36;;;;;;;7.57;1.98;;;23.10;99.90;;;;;;4903586;29;20048;-85
2022/08/21 16:44:04;;;;;;;6.90;1.77;;;23.00;99.90;;;;;;4902823;29;20126;-85
2022/08/21 16:46:37;;;;;;;7.65;1.85;;;22.80;99.90;;;;;;4886613;29;20051;-86
2022/08/21 16:49:03;;;;;;;10.07;1.90;;;22.80;99.90;;;;;;4920254;29;20172;-82
2022/08/21 16:51:30;;;;;;;8.40;1.70;;;22.70;99.90;;;;;;4902753;29;20048;-86
2022/08/21 16:53:57;;;;;;;10.68;2.20;;;22.60;99.90;;;;;;4902051;29;20048;-85
2022/08/21 16:56:23;;;;;;;5.28;1.77;;;22.50;99.90;;;;;;4886839;29;20412;-86
2022/08/21 16:58:50;;;;;;;5.72;1.55;;;22.40;99.90;;;;;;4902335;29;20044;-86
2022/08/21 17:01:19;;;;;;;8.00;1.75;;;22.40;99.90;;;;;;4886798;29;20078;-84
2022/08/21 17:03:49;;;;;;;9.80;2.15;;;22.30;99.90;;;;;;4919865;29;20396;-88
2022/08/21 17:06:16;;;;;;;8.48;1.98;;;22.20;99.90;;;;;;4902535;29;20059;-86